Time;durP1;ratioP1;P1;durP2;ratioP2;P2;SDS_P1;SDS_P2;PMS_P1;PMS_P2;Temp;Humidity;BMP_temperature;BMP_pressure;BME280_temperature;BME280_humidity;BME280_pressure;Samples;Min_cycle;Max_cycle;Signal;HPM_P1;HPM_P2
2024/01/16 00:01:08;;;;;;;7.90;4.80;;;;;;;-0.49;77.33;97147.73;226686;1272;22949;-76
2024/01/16 00:06:12;;;;;;;8.40;5.40;;;;;;;-0.51;77.34;97149.28;226424;1272;22530;-75
2024/01/16 00:11:14;;;;;;;7.40;4.50;;;;;;;-0.51;77.57;97151.00;226641;1267;22587;-77
2024/01/16 00:16:17;;;;;;;6.90;4.70;;;;;;;-0.53;77.84;97157.56;226638;1272;22598;-76
2024/01/16 00:21:19;;;;;;;6.90;4.80;;;;;;;-0.53;77.68;97167.81;226669;1257;22732;-76
2024/01/16 00:26:23;;;;;;;6.90;4.80;;;;;;;-0.52;78.00;97175.24;226573;1272;24971;-76
2024/01/16 00:31:25;;;;;;;6.80;4.60;;;;;;;-0.50;77.77;97178.70;226620;1270;22569;-76
2024/01/16 00:36:28;;;;;;;7.20;5.40;;;;;;;-0.48;77.90;97178.21;226590;1272;22606;-75
2024/01/16 00:41:31;;;;;;;9.10;5.20;;;;;;;-0.48;77.99;97185.58;226650;1272;25423;-77
2024/01/16 00:46:34;;;;;;;7.30;4.90;;;;;;;-0.47;78.18;97194.17;226620;1272;22626;-76
2024/01/16 00:51:36;;;;;;;7.80;5.30;;;;;;;-0.47;78.10;97193.82;226496;1272;24918;-76
2024/01/16 00:56:38;;;;;;;9.30;5.80;;;;;;;-0.47;78.27;97195.38;226671;1272;22543;-76
2024/01/16 01:01:42;;;;;;;8.30;5.40;;;;;;;-0.48;78.15;97198.94;226592;1272;22615;-76
2024/01/16 01:06:45;;;;;;;7.20;5.30;;;;;;;-0.52;78.22;97204.13;226589;1272;22551;-76
2024/01/16 01:11:48;;;;;;;7.40;4.80;;;;;;;-0.54;78.36;97210.31;226633;1270;22680;-76
2024/01/16 01:16:50;;;;;;;8.30;5.60;;;;;;;-0.56;78.34;97207.67;226563;1272;22691;-76
2024/01/16 01:21:52;;;;;;;8.90;5.80;;;;;;;-0.58;78.29;97204.42;226616;1272;22575;-76
2024/01/16 01:26:54;;;;;;;7.70;4.50;;;;;;;-0.62;78.49;97197.08;226687;1271;22839;-75
2024/01/16 01:31:56;;;;;;;7.90;4.80;;;;;;;-0.64;78.21;97199.20;226888;1269;22545;-76
2024/01/16 01:36:59;;;;;;;6.90;4.60;;;;;;;-0.64;78.36;97199.95;226651;1272;22717;-76
2024/01/16 01:42:01;;;;;;;7.50;4.60;;;;;;;-0.64;78.50;97203.77;226583;1272;22546;-76
2024/01/16 01:47:05;;;;;;;6.20;4.60;;;;;;;-0.65;78.28;97197.58;226606;1263;22547;-77
2024/01/16 01:52:07;;;;;;;6.30;4.50;;;;;;;-0.64;78.15;97205.27;226859;1271;22604;-78
2024/01/16 01:57:11;;;;;;;6.70;4.40;;;;;;;-0.66;78.28;97212.03;226599;1272;25512;-75
2024/01/16 02:02:13;;;;;;;7.20;4.40;;;;;;;-0.66;78.14;97213.06;226455;1272;22542;-76
2024/01/16 02:07:16;;;;;;;7.50;4.40;;;;;;;-0.68;78.28;97214.21;226634;1272;22637;-75
2024/01/16 02:12:18;;;;;;;7.30;5.00;;;;;;;-0.71;78.29;97223.40;226592;1269;22551;-76
2024/01/16 02:17:23;;;;;;;6.30;4.50;;;;;;;-0.73;78.49;97217.17;226495;1272;22540;-75
2024/01/16 02:22:28;;;;;;;5.30;4.10;;;;;;;-0.72;78.62;97221.29;226485;1272;25489;-76
2024/01/16 02:27:30;;;;;;;5.60;4.40;;;;;;;-0.72;78.69;97220.39;226458;1272;22537;-77
2024/01/16 02:32:32;;;;;;;5.30;3.90;;;;;;;-0.71;79.03;97227.56;226782;1267;22583;-75
2024/01/16 02:37:36;;;;;;;6.60;4.80;;;;;;;-0.72;79.04;97236.42;226657;1272;24240;-76
2024/01/16 02:42:38;;;;;;;6.20;4.70;;;;;;;-0.71;79.38;97244.70;226618;1269;22543;-76
2024/01/16 02:47:40;;;;;;;5.10;4.60;;;;;;;-0.72;79.64;97246.48;226661;1272;22543;-76
2024/01/16 02:52:43;;;;;;;5.50;4.70;;;;;;;-0.74;79.83;97243.08;226657;1271;22736;-76
2024/01/16 02:57:45;;;;;;;5.90;4.60;;;;;;;-0.75;80.24;97243.30;226652;1272;22576;-77
2024/01/16 03:02:48;;;;;;;5.30;4.20;;;;;;;-0.75;80.36;97243.82;226623;1272;22560;-77
2024/01/16 03:07:51;;;;;;;6.10;4.00;;;;;;;-0.74;80.34;97247.86;226634;1255;22570;-76
2024/01/16 03:12:53;;;;;;;4.90;4.20;;;;;;;-0.69;80.38;97272.16;226481;1272;22725;-76
2024/01/16 03:17:56;;;;;;;4.00;2.90;;;;;;;-0.62;80.21;97282.55;226651;1270;22524;-76
2024/01/16 03:22:58;;;;;;;4.20;3.00;;;;;;;-0.57;80.02;97288.91;226497;1271;23171;-76
2024/01/16 03:28:01;;;;;;;2.90;2.40;;;;;;;-0.48;79.74;97297.27;226644;1272;22672;-77
2024/01/16 03:33:04;;;;;;;3.30;2.80;;;;;;;-0.34;79.40;97307.33;226649;1266;22543;-76
2024/01/16 03:38:07;;;;;;;3.10;2.60;;;;;;;-0.26;79.16;97313.37;226612;1272;25541;-77
2024/01/16 03:43:09;;;;;;;3.50;3.00;;;;;;;-0.21;79.01;97314.11;226361;1266;342589;-76
2024/01/16 03:48:11;;;;;;;3.20;2.60;;;;;;;-0.26;78.95;97326.52;226658;1250;22641;-77
2024/01/16 03:53:14;;;;;;;3.30;2.80;;;;;;;-0.36;78.79;97339.48;226623;1272;22552;-77
2024/01/16 03:58:17;;;;;;;4.10;3.40;;;;;;;-0.44;78.92;97343.38;226667;1272;23190;-77
2024/01/16 04:03:19;;;;;;;3.80;3.40;;;;;;;-0.50;79.17;97351.64;226532;1272;22587;-76
2024/01/16 04:08:21;;;;;;;3.60;3.30;;;;;;;-0.52;79.29;97364.46;226580;1270;22614;-77
2024/01/16 04:13:24;;;;;;;4.00;2.90;;;;;;;-0.54;79.42;97364.50;226646;1272;22698;-77
2024/01/16 04:18:26;;;;;;;4.10;3.40;;;;;;;-0.53;79.49;97366.80;226611;1272;22532;-77
2024/01/16 04:23:28;;;;;;;4.50;3.60;;;;;;;-0.57;79.58;97375.35;226685;1272;22579;-77
2024/01/16 04:28:30;;;;;;;3.90;3.50;;;;;;;-0.65;79.76;97384.58;226603;1271;22601;-75
2024/01/16 04:33:34;;;;;;;6.00;3.80;;;;;;;-0.72;79.76;97384.29;226730;1272;22609;-76
2024/01/16 04:38:37;;;;;;;4.80;3.90;;;;;;;-0.77;79.86;97396.48;226471;1272;22659;-76
2024/01/16 04:43:40;;;;;;;4.60;3.60;;;;;;;-0.79;79.91;97395.27;226682;1272;22542;-76
2024/01/16 04:48:42;;;;;;;7.70;3.60;;;;;;;-0.77;80.04;97407.11;226625;1270;22537;-76
2024/01/16 04:53:44;;;;;;;4.30;3.30;;;;;;;-0.76;80.16;97414.08;226370;1272;23095;-76
2024/01/16 04:58:47;;;;;;;5.70;4.10;;;;;;;-0.75;80.48;97430.25;226504;1269;22867;-75
2024/01/16 05:03:50;;;;;;;5.50;3.80;;;;;;;-0.77;80.63;97437.33;226620;1272;22667;-76
2024/01/16 05:08:52;;;;;;;7.50;4.60;;;;;;;-0.79;80.61;97440.65;226491;1272;25363;-76
2024/01/16 05:13:57;;;;;;;6.30;4.80;;;;;;;-0.84;81.15;97444.77;226653;1271;22555;-77
2024/01/16 05:19:00;;;;;;;8.40;5.50;;;;;;;-0.88;81.40;97447.88;226632;1271;22545;-76
2024/01/16 05:24:03;;;;;;;5.80;4.20;;;;;;;-0.88;81.60;97451.02;226825;1271;24224;-77
2024/01/16 05:29:05;;;;;;;5.60;3.90;;;;;;;-0.94;81.54;97453.55;226663;1272;22550;-77
2024/01/16 05:34:08;;;;;;;6.10;4.40;;;;;;;-1.09;81.82;97459.82;226646;1269;22532;-77
2024/01/16 05:39:11;;;;;;;5.40;4.80;;;;;;;-1.22;82.04;97460.18;226682;1272;25419;-77
2024/01/16 05:44:13;;;;;;;6.60;5.00;;;;;;;-1.36;82.17;97471.23;226453;1272;22545;-76
2024/01/16 05:49:15;;;;;;;8.60;6.30;;;;;;;-1.46;82.50;97478.40;226596;1270;22547;-76
2024/01/16 05:54:18;;;;;;;10.60;6.80;;;;;;;-1.50;82.83;97479.31;226630;1272;22634;-76
2024/01/16 05:59:20;;;;;;;13.80;8.30;;;;;;;-1.49;83.07;97485.09;226667;1272;22545;-76
2024/01/16 06:04:23;;;;;;;12.30;8.90;;;;;;;-1.46;83.39;97494.92;226623;1272;22560;-76
2024/01/16 06:09:25;;;;;;;8.50;6.60;;;;;;;-1.39;83.45;97501.20;226644;1272;22736;-76
2024/01/16 06:14:28;;;;;;;7.80;6.20;;;;;;;-1.35;83.74;97508.43;226601;1272;22605;-76
2024/01/16 06:19:30;;;;;;;6.40;4.60;;;;;;;-1.35;83.67;97516.95;226560;1272;23063;-76
2024/01/16 06:24:36;;;;;;;6.70;4.90;;;;;;;-1.39;83.79;97516.79;226565;1272;22552;-76
2024/01/16 06:29:39;;;;;;;8.70;5.90;;;;;;;-1.42;83.92;97526.17;226674;1272;23006;-74
2024/01/16 06:34:42;;;;;;;8.10;5.40;;;;;;;-1.41;84.07;97536.77;226639;1270;22537;-75
2024/01/16 06:39:46;;;;;;;9.10;5.50;;;;;;;-1.39;84.36;97550.60;226592;1272;24266;-76
2024/01/16 06:44:48;;;;;;;8.80;6.00;;;;;;;-1.37;84.16;97562.15;226411;1269;22538;-76
2024/01/16 06:49:51;;;;;;;11.00;7.00;;;;;;;-1.35;84.46;97577.14;226465;1272;22607;-77
2024/01/16 06:54:54;;;;;;;11.20;7.30;;;;;;;-1.31;84.45;97591.63;226529;1267;22554;-76
2024/01/16 06:59:56;;;;;;;9.70;6.60;;;;;;;-1.24;84.73;97594.45;226275;1263;24224;-76
2024/01/16 07:04:59;;;;;;;11.00;7.10;;;;;;;-1.20;84.21;97607.67;226252;1266;22554;-76
2024/01/16 07:10:02;;;;;;;9.70;6.70;;;;;;;-1.15;84.46;97622.20;226130;1267;25069;-76
2024/01/16 07:15:05;;;;;;;9.50;6.70;;;;;;;-1.12;84.35;97625.90;226094;1266;22661;-75
2024/01/16 07:20:08;;;;;;;12.10;8.80;;;;;;;-1.09;84.26;97624.45;226536;1270;22909;-75
2024/01/16 07:25:10;;;;;;;8.40;5.70;;;;;;;-1.04;84.38;97624.50;226415;1263;23057;-76
2024/01/16 07:30:13;;;;;;;9.30;6.60;;;;;;;-1.03;84.06;97623.44;226104;1260;25256;-77
2024/01/16 07:35:15;;;;;;;9.10;6.60;;;;;;;-1.08;83.76;97631.27;226154;1266;22544;-76
2024/01/16 07:40:17;;;;;;;10.60;5.50;;;;;;;-1.10;83.78;97634.70;226005;1272;22639;-76
2024/01/16 07:45:19;;;;;;;7.20;5.60;;;;;;;-1.06;84.15;97644.60;226004;1272;22566;-77
2024/01/16 07:50:22;;;;;;;10.90;6.30;;;;;;;-0.99;83.96;97650.96;226353;1263;22583;-77
2024/01/16 07:55:24;;;;;;;14.60;6.90;;;;;;;-0.95;83.76;97657.50;226121;1267;22536;-77
2024/01/16 08:00:27;;;;;;;9.30;5.90;;;;;;;-0.96;83.69;97658.54;226147;1256;22555;-77
2024/01/16 08:05:30;;;;;;;10.30;5.90;;;;;;;-1.03;83.10;97658.75;225944;1271;24083;-77
2024/01/16 08:10:32;;;;;;;10.80;7.50;;;;;;;-1.13;82.96;97666.95;226121;1270;22564;-77
2024/01/16 08:15:34;;;;;;;11.60;7.00;;;;;;;-1.16;83.10;97674.71;225940;1267;23169;-77
2024/01/16 08:20:37;;;;;;;12.40;6.20;;;;;;;-1.08;83.20;97678.29;226140;1272;22543;-76
2024/01/16 08:25:39;;;;;;;7.90;5.00;;;;;;;-1.00;82.87;97689.60;226151;1269;22806;-76
2024/01/16 08:30:42;;;;;;;8.60;4.90;;;;;;;-0.93;82.55;97691.92;226155;1269;22950;-76
2024/01/16 08:35:45;;;;;;;9.40;5.80;;;;;;;-0.80;82.16;97698.27;226128;1272;24255;-76
2024/01/16 08:40:48;;;;;;;9.90;5.80;;;;;;;-0.50;82.26;97699.80;226218;1264;22556;-76
2024/01/16 08:45:50;;;;;;;10.00;6.20;;;;;;;-0.20;82.04;97706.19;226060;1271;22550;-76
2024/01/16 08:50:54;;;;;;;9.80;5.10;;;;;;;0.09;81.94;97709.15;229167;1272;22199;-76
2024/01/16 08:55:56;;;;;;;7.10;4.50;;;;;;;0.28;81.19;97708.48;227702;1269;22569;-76
2024/01/16 09:00:58;;;;;;;6.60;3.90;;;;;;;0.39;80.42;97712.59;226077;1270;22554;-77
2024/01/16 09:06:00;;;;;;;9.10;4.10;;;;;;;0.51;80.28;97719.86;226018;1273;22551;-77
2024/01/16 09:11:03;;;;;;;6.70;4.00;;;;;;;0.63;79.97;97724.88;226130;1272;22767;-76
2024/01/16 09:16:05;;;;;;;13.60;5.20;;;;;;;0.70;79.53;97732.84;226141;1272;22548;-76
2024/01/16 09:21:07;;;;;;;11.50;4.60;;;;;;;0.83;79.01;97737.86;226155;1257;22541;-76
2024/01/16 09:26:10;;;;;;;8.30;4.00;;;;;;;0.94;78.81;97746.25;226248;1273;22592;-77
2024/01/16 09:31:14;;;;;;;6.10;3.70;;;;;;;1.10;78.66;97746.35;226228;1272;22547;-76
2024/01/16 09:36:16;;;;;;;8.80;4.10;;;;;;;1.28;78.30;97745.95;226408;1251;22551;-76
2024/01/16 09:41:18;;;;;;;8.40;3.90;;;;;;;1.56;78.28;97745.30;226286;1270;23008;-77
2024/01/16 09:46:24;;;;;;;7.80;3.60;;;;;;;1.98;77.94;97742.52;226316;1267;25334;-77
2024/01/16 09:51:26;;;;;;;9.80;4.70;;;;;;;2.43;77.01;97741.06;226109;1270;22916;-76
2024/01/16 09:56:31;;;;;;;4.60;2.90;;;;;;;2.64;75.34;97744.00;226399;1272;22580;-76
2024/01/16 10:01:33;;;;;;;4.40;2.50;;;;;;;2.95;74.38;97747.30;226436;1264;22555;-76
2024/01/16 10:06:37;;;;;;;5.00;3.00;;;;;;;3.19;74.15;97746.37;226465;1269;22589;-77
2024/01/16 10:11:40;;;;;;;4.10;2.30;;;;;;;3.34;73.15;97765.88;226306;1266;22539;-77
2024/01/16 10:16:57;;;;;;;3.90;2.00;;;;;;;3.50;72.88;97771.90;226237;1269;22688;-78
2024/01/16 10:22:04;;;;;;;4.00;2.30;;;;;;;3.42;71.27;97779.92;226274;1270;24300;-78
2024/01/16 10:27:06;;;;;;;3.00;2.30;;;;;;;3.11;70.15;97785.43;226378;1272;22655;-77
2024/01/16 10:32:09;;;;;;;3.40;2.10;;;;;;;2.86;70.92;97787.05;226335;1257;22549;-77
2024/01/16 10:37:11;;;;;;;6.20;2.60;;;;;;;2.75;71.62;97792.96;226129;1273;24280;-78
2024/01/16 10:42:15;;;;;;;4.10;2.70;;;;;;;2.64;71.55;97802.11;226268;1265;23379;-77
2024/01/16 10:47:17;;;;;;;6.00;2.90;;;;;;;2.47;71.23;97807.68;226189;1272;24314;-77
2024/01/16 10:52:22;;;;;;;4.10;3.10;;;;;;;2.44;71.64;97814.94;226174;1260;22578;-77
2024/01/16 10:57:26;;;;;;;4.20;2.20;;;;;;;2.47;72.03;97833.32;226505;1272;22513;-77
2024/01/16 11:02:36;;;;;;;3.30;1.70;;;;;;;2.27;72.06;97843.83;226369;1267;25057;-78
2024/01/16 11:07:41;;;;;;;2.60;1.30;;;;;;;2.15;72.46;97843.10;226183;1262;22552;-77
2024/01/16 11:12:45;;;;;;;1.70;1.30;;;;;;;1.98;72.64;97846.73;226416;1260;22587;-76
2024/01/16 11:17:47;;;;;;;1.70;1.40;;;;;;;1.78;72.98;97856.23;226299;1272;22550;-77
2024/01/16 11:22:51;;;;;;;1.60;1.20;;;;;;;1.57;73.45;97860.12;226405;1273;22553;-76
2024/01/16 11:27:53;;;;;;;1.10;1.00;;;;;;;1.43;73.98;97860.80;226201;1272;23028;-77
2024/01/16 11:32:55;;;;;;;2.30;1.10;;;;;;;1.26;74.33;97864.64;226291;1267;22748;-75
2024/01/16 11:38:04;;;;;;;1.60;1.10;;;;;;;1.21;74.69;97870.33;226282;1274;22703;-76
2024/01/16 11:43:34;;;;;;;2.10;1.00;;;;;;;1.13;74.50;97875.44;226417;1270;22532;-76
2024/01/16 11:48:39;;;;;;;1.30;0.80;;;;;;;1.01;74.85;97878.47;226348;1270;22896;-75
2024/01/16 11:53:42;;;;;;;1.70;1.10;;;;;;;0.94;74.73;97884.23;226220;1264;25446;-76
2024/01/16 11:59:30;;;;;;;2.20;1.40;;;;;;;0.83;74.70;97882.67;226270;1272;22554;-76
2024/01/16 12:04:32;;;;;;;2.30;1.40;;;;;;;0.69;75.21;97867.58;226216;1264;22542;-76
2024/01/16 12:09:34;;;;;;;3.00;1.80;;;;;;;0.88;75.86;97863.98;226190;1269;22564;-76
2024/01/16 12:14:36;;;;;;;3.50;1.80;;;;;;;1.11;75.87;97852.70;226172;1272;22566;-76
2024/01/16 12:19:41;;;;;;;4.00;1.90;;;;;;;1.28;75.67;97856.98;226402;1267;23124;-76
2024/01/16 12:24:45;;;;;;;4.50;2.10;;;;;;;1.47;75.66;97858.21;226425;1266;24275;-78
2024/01/16 12:29:47;;;;;;;5.20;2.10;;;;;;;1.68;75.53;97859.70;226589;1270;22559;-76
2024/01/16 12:34:49;;;;;;;4.40;2.30;;;;;;;1.80;74.69;97861.59;226340;1267;22556;-76
2024/01/16 12:39:52;;;;;;;3.90;2.50;;;;;;;1.89;74.29;97860.34;226548;1272;22567;-76
2024/01/16 12:44:54;;;;;;;2.90;2.10;;;;;;;1.90;73.79;97863.92;226376;1251;22550;-76
2024/01/16 12:49:56;;;;;;;3.80;2.40;;;;;;;1.85;73.89;97863.72;226382;1272;22571;-75
2024/01/16 12:55:00;;;;;;;3.40;2.40;;;;;;;1.80;73.60;97863.17;226383;1251;22546;-76
2024/01/16 13:00:25;;;;;;;2.60;2.00;;;;;;;1.70;73.34;97866.94;226163;1269;22580;-76
2024/01/16 13:05:27;;;;;;;3.70;2.30;;;;;;;1.64;73.47;97873.04;226283;1272;24270;-76
2024/01/16 13:10:32;;;;;;;4.40;2.60;;;;;;;1.64;73.41;97872.33;226129;1273;22555;-76
2024/01/16 13:15:34;;;;;;;5.40;2.70;;;;;;;1.60;73.22;97874.89;226192;1267;23166;-76
2024/01/16 13:20:36;;;;;;;4.60;2.90;;;;;;;1.55;73.31;97885.63;226140;1261;24369;-76
2024/01/16 13:25:38;;;;;;;4.00;2.80;;;;;;;1.51;73.63;97891.96;226112;1258;22584;-76
2024/01/16 13:30:41;;;;;;;3.50;2.90;;;;;;;1.49;73.28;97897.66;226001;1261;22553;-77
2024/01/16 13:35:48;;;;;;;4.30;3.30;;;;;;;1.48;73.28;97898.46;226209;1260;22540;-77
2024/01/16 13:40:51;;;;;;;4.90;3.30;;;;;;;1.45;73.44;97894.61;226002;1260;22556;-77
2024/01/16 13:45:54;;;;;;;6.00;4.20;;;;;;;1.33;73.19;97901.02;226036;1260;22554;-78
2024/01/16 13:50:56;;;;;;;5.40;3.50;;;;;;;1.14;73.44;97907.77;226218;1251;22667;-76
2024/01/16 13:55:58;;;;;;;8.90;4.30;;;;;;;1.03;73.72;97919.38;225968;1273;22574;-78
2024/01/16 14:01:00;;;;;;;6.40;4.00;;;;;;;0.95;74.11;97925.24;226098;1269;22920;-77
2024/01/16 14:06:04;;;;;;;6.10;4.00;;;;;;;0.83;74.05;97935.83;226170;1258;22545;-77
2024/01/16 14:11:06;;;;;;;5.60;3.70;;;;;;;0.72;74.22;97946.02;226319;1266;22571;-77
2024/01/16 14:16:08;;;;;;;5.30;3.60;;;;;;;0.63;74.43;97962.11;226313;1266;22537;-77
2024/01/16 14:21:10;;;;;;;6.10;3.40;;;;;;;0.54;74.64;97970.27;226155;1267;22536;-77
2024/01/16 14:26:15;;;;;;;7.80;3.30;;;;;;;0.43;74.59;97977.23;226373;1253;22651;-77
2024/01/16 14:31:17;;;;;;;5.50;2.50;;;;;;;0.25;74.87;97972.82;226272;1264;22537;-77
2024/01/16 14:36:19;;;;;;;5.60;3.30;;;;;;;0.04;74.84;97971.14;226331;1263;22557;-75
2024/01/16 14:41:22;;;;;;;5.00;3.20;;;;;;;-0.16;74.97;97977.70;226452;1266;22548;-77
2024/01/16 14:46:24;;;;;;;6.60;4.60;;;;;;;-0.37;75.67;97996.87;226351;1258;22540;-77
2024/01/16 14:51:26;;;;;;;10.50;4.80;;;;;;;-0.51;75.85;98007.35;226078;1270;25510;-76
2024/01/16 14:56:30;;;;;;;5.90;3.90;;;;;;;-0.64;76.37;98016.31;226459;1270;25198;-76
2024/01/16 15:01:32;;;;;;;6.50;4.80;;;;;;;-0.72;76.93;98026.86;226430;1270;22539;-75
2024/01/16 15:06:34;;;;;;;7.00;4.70;;;;;;;-0.75;77.04;98030.92;226243;1250;22612;-76
2024/01/16 15:11:37;;;;;;;5.80;4.40;;;;;;;-0.78;77.12;98032.04;226350;1269;22561;-77
2024/01/16 15:16:39;;;;;;;6.40;4.00;;;;;;;-0.80;77.63;98035.69;226331;1273;23166;-77
2024/01/16 15:21:42;;;;;;;6.70;4.50;;;;;;;-0.81;77.50;98050.10;226407;1270;22543;-76
2024/01/16 15:26:44;;;;;;;5.70;3.80;;;;;;;-0.83;77.89;98051.70;226314;1273;22617;-76
2024/01/16 15:31:46;;;;;;;5.60;3.50;;;;;;;-0.86;77.63;98058.35;226207;1272;22626;-78
2024/01/16 15:36:48;;;;;;;5.80;4.20;;;;;;;-0.93;77.65;98066.89;226402;1272;22580;-77
2024/01/16 15:41:51;;;;;;;8.70;5.60;;;;;;;-1.06;77.56;98072.73;226283;1273;188614;-78
2024/01/16 15:47:01;;;;;;;12.00;6.40;;;;;;;-1.22;77.73;98083.75;226451;1270;22711;-77
2024/01/16 15:52:04;;;;;;;12.00;5.70;;;;;;;-1.38;77.85;98091.73;226530;1273;22686;-78
2024/01/16 15:57:06;;;;;;;16.50;9.00;;;;;;;-1.52;78.09;98103.96;226497;1268;25402;-76
2024/01/16 16:02:08;;;;;;;14.60;8.10;;;;;;;-1.63;78.36;98097.52;226435;1272;22591;-77
2024/01/16 16:07:10;;;;;;;12.90;7.70;;;;;;;-1.71;78.50;98111.95;226485;1273;22765;-75
2024/01/16 16:12:12;;;;;;;13.00;7.90;;;;;;;-1.78;78.72;98117.35;226405;1273;24241;-77
2024/01/16 16:17:18;;;;;;;18.80;10.90;;;;;;;-1.86;78.75;98123.35;226525;1256;22552;-75
2024/01/16 16:22:20;;;;;;;19.20;12.40;;;;;;;-1.91;79.02;98114.96;226455;1272;22553;-75
2024/01/16 16:27:24;;;;;;;17.40;10.00;;;;;;;-1.94;79.35;98114.33;226462;1269;22915;-75
2024/01/16 16:32:26;;;;;;;14.90;8.90;;;;;;;-1.95;79.58;98112.26;226462;1272;22548;-75
2024/01/16 16:37:29;;;;;;;16.90;10.50;;;;;;;-1.96;79.80;98110.95;226462;1271;22591;-77
2024/01/16 16:42:32;;;;;;;15.40;9.80;;;;;;;-1.99;79.72;98113.10;226378;1273;22530;-76
2024/01/16 16:47:33;;;;;;;18.40;11.70;;;;;;;-2.08;79.47;98111.77;226368;1272;22564;-77
2024/01/16 16:52:36;;;;;;;17.70;10.10;;;;;;;-2.23;79.55;98125.73;226498;1270;22676;-76
2024/01/16 16:57:38;;;;;;;13.60;8.80;;;;;;;-2.36;79.85;98127.14;226479;1270;22565;-76
2024/01/16 17:02:40;;;;;;;14.60;8.90;;;;;;;-2.43;80.05;98131.02;226509;1266;25613;-76
2024/01/16 17:07:42;;;;;;;14.60;9.10;;;;;;;-2.46;80.10;98130.53;226429;1272;22570;-76
2024/01/16 17:12:45;;;;;;;14.50;9.00;;;;;;;-2.52;80.19;98132.36;226470;1270;22973;-75
2024/01/16 17:17:47;;;;;;;14.80;8.60;;;;;;;-2.59;80.37;98135.89;226344;1273;24010;-75
2024/01/16 17:22:49;;;;;;;17.40;9.50;;;;;;;-2.69;80.19;98131.68;226345;1270;24303;-76
2024/01/16 17:27:51;;;;;;;13.60;8.50;;;;;;;-2.78;80.20;98132.21;226490;1272;22637;-75
2024/01/16 17:32:53;;;;;;;17.40;10.30;;;;;;;-2.85;80.43;98135.58;226474;1268;22735;-76
2024/01/16 17:37:58;;;;;;;13.30;9.20;;;;;;;-2.90;80.73;98134.89;226474;1270;22572;-74
2024/01/16 17:43:00;;;;;;;16.50;9.50;;;;;;;-2.94;80.85;98143.81;226495;1270;23080;-75
2024/01/16 17:48:04;;;;;;;17.00;9.10;;;;;;;-2.98;80.83;98149.48;226518;1272;23124;-76
2024/01/16 17:53:06;;;;;;;15.70;9.40;;;;;;;-2.99;81.01;98151.29;226418;1271;22690;-75
2024/01/16 17:58:10;;;;;;;16.30;8.70;;;;;;;-3.01;80.98;98154.36;226415;1269;22608;-74
2024/01/16 18:03:14;;;;;;;19.90;10.20;;;;;;;-3.01;80.97;98158.70;226327;1272;22587;-75
2024/01/16 18:08:37;;;;;;;18.20;10.80;;;;;;;-2.99;81.02;98159.23;226456;1272;23199;-74
2024/01/16 18:13:41;;;;;;;29.10;16.10;;;;;;;-2.93;81.10;98154.58;226400;1271;22572;-73
2024/01/16 18:18:44;;;;;;;33.40;18.30;;;;;;;-2.87;81.16;98150.49;226414;1268;22769;-75
2024/01/16 18:23:47;;;;;;;39.20;20.70;;;;;;;-2.86;81.35;98158.16;226474;1270;22696;-75
2024/01/16 18:28:49;;;;;;;49.50;24.00;;;;;;;-2.93;81.24;98160.64;226442;1270;22586;-75
2024/01/16 18:33:51;;;;;;;44.40;23.10;;;;;;;-3.07;80.88;98172.04;226488;1270;22569;-74
2024/01/16 18:38:53;;;;;;;43.30;22.30;;;;;;;-3.21;81.08;98177.06;226412;1272;22606;-73
2024/01/16 18:43:55;;;;;;;52.30;26.80;;;;;;;-3.35;81.03;98175.93;226538;1270;22645;-75
2024/01/16 18:48:57;;;;;;;64.60;31.80;;;;;;;-3.48;80.91;98178.33;226444;1270;23174;-74
2024/01/16 18:54:00;;;;;;;62.70;34.10;;;;;;;-3.55;81.42;98174.34;226452;1270;22602;-74
2024/01/16 18:59:03;;;;;;;70.20;34.30;;;;;;;-3.58;81.75;98174.92;226465;1270;22583;-73
2024/01/16 19:04:06;;;;;;;62.40;32.50;;;;;;;-3.63;81.77;98176.17;226390;1272;22584;-74
2024/01/16 19:09:10;;;;;;;67.60;32.80;;;;;;;-3.66;82.04;98186.34;226402;1272;26428;-74
2024/01/16 19:14:13;;;;;;;73.40;34.80;;;;;;;-3.72;81.56;98190.08;226565;1269;22572;-74
2024/01/16 19:19:16;;;;;;;70.90;34.00;;;;;;;-3.77;81.61;98192.30;226426;1271;22592;-74
2024/01/16 19:24:19;;;;;;;77.40;38.30;;;;;;;-3.79;81.76;98202.11;226443;1266;26329;-72
2024/01/16 19:29:21;;;;;;;77.90;36.00;;;;;;;-3.80;81.81;98209.95;226424;1267;22617;-73
2024/01/16 19:34:24;;;;;;;76.10;37.40;;;;;;;-3.83;81.73;98209.30;226475;1250;22872;-73
2024/01/16 19:39:32;;;;;;;66.80;33.60;;;;;;;-3.86;81.87;98216.55;226369;1271;22572;-74
2024/01/16 19:44:34;;;;;;;70.60;34.00;;;;;;;-3.86;81.92;98214.88;226499;1269;23115;-74
2024/01/16 19:49:36;;;;;;;71.40;35.00;;;;;;;-3.85;81.98;98210.16;226390;1272;22662;-73
2024/01/16 19:54:39;;;;;;;74.20;36.60;;;;;;;-3.85;82.10;98208.77;226419;1272;22766;-73
2024/01/16 19:59:42;;;;;;;78.40;39.10;;;;;;;-3.82;82.26;98203.34;226489;1266;22849;-74
2024/01/16 20:04:44;;;;;;;83.00;39.70;;;;;;;-3.78;82.21;98198.94;226573;1269;22579;-73
2024/01/16 20:09:46;;;;;;;86.00;42.70;;;;;;;-3.74;82.17;98201.20;226528;1269;22582;-73
2024/01/16 20:14:48;;;;;;;89.30;42.30;;;;;;;-3.71;81.99;98201.89;226483;1269;25501;-73
2024/01/16 20:19:50;;;;;;;86.60;41.80;;;;;;;-3.68;82.15;98203.34;226451;1270;25540;-73
2024/01/16 20:24:54;;;;;;;82.90;39.60;;;;;;;-3.64;81.94;98197.75;226391;1267;22830;-73
2024/01/16 20:29:56;;;;;;;82.70;36.20;;;;;;;-3.60;82.21;98198.50;226467;1250;22896;-73
2024/01/16 20:34:58;;;;;;;87.70;41.10;;;;;;;-3.60;81.86;98193.13;226455;1269;23115;-73
2024/01/16 20:40:00;;;;;;;88.20;42.00;;;;;;;-3.60;81.87;98187.12;226445;1266;22634;-73
2024/01/16 20:45:08;;;;;;;95.50;45.30;;;;;;;-3.61;81.93;98182.16;226408;1270;22664;-73
2024/01/16 20:50:11;;;;;;;101.80;49.10;;;;;;;-3.63;81.91;98183.16;226481;1266;25516;-74
2024/01/16 20:55:14;;;;;;;102.30;49.20;;;;;;;-3.62;82.06;98179.51;226449;1261;22708;-73
2024/01/16 21:00:16;;;;;;;99.10;46.80;;;;;;;-3.59;82.01;98177.57;226378;1273;22578;-73
2024/01/16 21:05:18;;;;;;;93.40;41.30;;;;;;;-3.55;82.41;98178.98;226467;1266;22592;-73
2024/01/16 21:10:20;;;;;;;83.60;40.70;;;;;;;-3.55;82.34;98182.04;226442;1269;23055;-73
2024/01/16 21:15:22;;;;;;;96.70;46.00;;;;;;;-3.54;82.25;98181.99;226434;1269;22581;-73
2024/01/16 21:20:25;;;;;;;105.50;48.30;;;;;;;-3.51;82.05;98183.20;226406;1272;24281;-73
2024/01/16 21:25:28;;;;;;;90.60;43.00;;;;;;;-3.50;82.24;98182.89;226410;1273;23216;-73
2024/01/16 21:30:30;;;;;;;99.50;46.40;;;;;;;-3.47;82.22;98184.09;226562;1270;22592;-73
2024/01/16 21:35:31;;;;;;;93.90;43.90;;;;;;;-3.45;82.29;98179.27;226495;1266;22549;-73
2024/01/16 21:40:34;;;;;;;99.60;46.20;;;;;;;-3.44;82.25;98175.62;226526;1269;22710;-73
2024/01/16 21:45:36;;;;;;;102.00;45.30;;;;;;;-3.43;82.28;98175.55;226447;1266;22672;-72
2024/01/16 21:50:38;;;;;;;102.30;49.10;;;;;;;-3.42;82.26;98173.73;226468;1269;23168;-73
2024/01/16 21:55:41;;;;;;;96.20;44.70;;;;;;;-3.41;82.27;98169.67;226440;1266;22665;-74
2024/01/16 22:00:43;;;;;;;97.20;46.80;;;;;;;-3.42;82.37;98164.80;226435;1266;22594;-74
2024/01/16 22:05:45;;;;;;;93.50;45.10;;;;;;;-3.46;82.16;98164.35;226377;1272;22607;-73
2024/01/16 22:10:50;;;;;;;98.10;44.90;;;;;;;-3.49;82.39;98160.80;226519;1272;22633;-73
2024/01/16 22:15:52;;;;;;;95.60;44.50;;;;;;;-3.52;82.34;98145.54;226443;1266;22602;-73
2024/01/16 22:20:54;;;;;;;97.80;44.00;;;;;;;-3.55;82.27;98139.58;226439;1250;23263;-73
2024/01/16 22:25:56;;;;;;;95.10;44.90;;;;;;;-3.63;82.53;98142.02;226413;1270;23820;-73
2024/01/16 22:30:58;;;;;;;85.90;40.00;;;;;;;-3.73;82.31;98137.81;226462;1269;22612;-73
2024/01/16 22:36:01;;;;;;;97.40;42.50;;;;;;;-3.84;82.63;98136.42;226525;1272;22577;-72
2024/01/16 22:41:06;;;;;;;86.90;40.50;;;;;;;-3.95;82.44;98137.43;226474;1272;22602;-72
2024/01/16 22:46:10;;;;;;;89.10;39.00;;;;;;;-4.08;82.60;98135.45;226446;1263;22608;-72
2024/01/16 22:51:13;;;;;;;90.20;40.20;;;;;;;-4.18;82.56;98135.89;226389;1272;22656;-74
2024/01/16 22:56:15;;;;;;;84.00;39.20;;;;;;;-4.27;82.61;98135.48;226377;1272;22578;-72
2024/01/16 23:01:17;;;;;;;77.00;36.50;;;;;;;-4.36;82.58;98131.16;226455;1267;22549;-73
2024/01/16 23:06:20;;;;;;;84.00;37.00;;;;;;;-4.44;82.60;98123.20;226418;1250;23588;-72
2024/01/16 23:11:24;;;;;;;80.00;35.60;;;;;;;-4.51;82.53;98118.55;226441;1271;22667;-73
2024/01/16 23:16:29;;;;;;;70.00;33.90;;;;;;;-4.58;82.67;98117.10;226560;1267;22608;-73
2024/01/16 23:21:32;;;;;;;57.70;27.80;;;;;;;-4.64;82.61;98123.70;226465;1269;22636;-72